Flight Track Log - Related Links

Times and Time Zones

All times are in EDT time to prevent confusion due to time zone crossing. See the ELT222 flight status page for this flight to view local times or setup timezone preferences in your user account.

Time Position Orientation Groundspeed Altitude Reporting Facility
EDT Latitude Longitude Course Direction KTS MPH feet Rate Location/Type
Thu 03:40:16 PM 41.1675 -112.0747 248° West 199 229 6,500  Level Salt Lake Center
Thu 03:41:18 PM 41.1786 -112.1556 280° West 259 298 8,900 2,323 Climbing Salt Lake Center
Thu 03:42:20 PM 41.2525 -112.1969 337° Northwest 290 334 11,300 2,323 Climbing Salt Lake Center
Thu 03:43:22 PM 41.3403 -112.1944 North 323 372 13,700 2,613 Climbing Salt Lake Center
Thu 03:44:24 PM 41.3869 -112.0617 65° Northeast 336 387 16,700 2,419 Climbing Salt Lake Center
Thu 03:45:26 PM 41.4153 -111.9356 73° East 353 406 18,700 2,032 Climbing Salt Lake Center
Thu 03:46:28 PM 41.4444 -111.8031 74° East 369 425 20,900 1,887 Climbing Salt Lake Center
Thu 03:47:30 PM 41.4728 -111.6669 74° East 378 435 22,600 1,548 Climbing Salt Lake Center
Thu 03:48:32 PM 41.5036 -111.5233 74° East 398 458 24,100 1,488 Climbing Salt Lake Center
Thu 03:49:35 PM 41.5358 -111.3750 74° East 415 478 25,700 1,488 Climbing Salt Lake Center
Thu 03:50:37 PM 41.5661 -111.2231 75° East 423 487 27,200 1,403 Climbing Salt Lake Center
Thu 03:51:39 PM 41.6067 -111.0342 74° East 439 505 28,600 1,210 Climbing Salt Lake Center
Thu 03:52:41 PM 41.6356 -110.8906 75° East 447 514 29,700 1,161 Climbing Salt Lake Center
Thu 03:53:43 PM 41.6736 -110.7097 74° East 452 520 31,000 1,161 Climbing Salt Lake Center
Thu 03:54:45 PM 41.7058 -110.5519 75° East 458 527 32,100 1,113 Climbing Salt Lake Center
Thu 03:55:47 PM 41.7436 -110.3689 74° East 458 527 33,300 1,016 Climbing Salt Lake Center
Thu 03:56:49 PM 41.7756 -110.2106 75° East 459 528 34,200 968 Climbing Salt Lake Center
Thu 03:57:51 PM 41.8114 -110.0253 75° East 458 527 35,300 968 Climbing Salt Lake Center
Thu 03:58:53 PM 41.8433 -109.8656 75° East 462 532 36,200 823 Climbing Salt Lake Center
Thu 03:59:55 PM 41.8803 -109.6800 75° East 460 529 37,000 387 Climbing Salt Lake Center
Thu 04:00:57 PM 41.9117 -109.5161 76° East 469 540 37,000  Level Salt Lake Center
Thu 04:01:59 PM 41.9444 -109.3461 75° East 482 555 37,000  Level Salt Lake Center
Thu 04:03:01 PM 41.9844 -109.1439 75° East 495 570 37,000  Level Salt Lake Center
Thu 04:04:03 PM 42.0172 -108.9681 76° East 501 577 37,000  Level Salt Lake Center
Thu 04:05:05 PM 42.0561 -108.7619 76° East 507 583 37,000  Level Salt Lake Center
Thu 04:06:07 PM 42.0892 -108.5847 76° East 509 586 37,000  Level Salt Lake Center
Thu 04:07:09 PM 42.1275 -108.3775 76° East 509 586 37,000  Level Salt Lake Center
Thu 04:08:11 PM 42.1592 -108.2000 76° East 510 587 37,000  Level Salt Lake Center
Thu 04:09:13 PM 42.1967 -107.9922 76° East 510 587 37,000  Level Salt Lake Center
Thu 04:10:15 PM 42.2294 -107.8156 76° East 508 585 37,000  Level Salt Lake Center
Thu 04:11:17 PM 42.2608 -107.6361 77° East 512 589 37,000  Level Salt Lake Center
Thu 04:12:19 PM 42.2956 -107.4281 77° East 510 587 37,000  Level Salt Lake Center
Thu 04:13:24 PM 42.3294 -107.2167 78° East 513 590 37,000  Level Denver Center
Thu 04:14:26 PM 42.3611 -107.0378 76° East 513 590 37,000  Level Denver Center
Thu 04:15:41 PM 42.4025 -106.7914 77° East 508 585 37,000  Level Denver Center
Thu 04:16:43 PM 42.4322 -106.6139 77° East 506 582 37,000  Level Denver Center
Thu 04:17:45 PM 42.4667 -106.4050 77° East 508 585 37,000  Level Denver Center
Thu 04:18:47 PM 42.4958 -106.2264 77° East 509 586 37,000  Level Denver Center
Thu 04:19:49 PM 42.5292 -106.0178 78° East 507 583 37,000  Level Denver Center
Thu 04:20:51 PM 42.5581 -105.8386 78° East 508 585 37,000  Level Denver Center
Thu 04:21:53 PM 42.5842 -105.6597 79° East 505 581 37,000  Level Denver Center
Thu 04:22:55 PM 42.6156 -105.4519 78° East 503 579 37,000  Level Denver Center
Thu 04:23:57 PM 42.6428 -105.2758 78° East 499 574 37,000  Level Denver Center
Thu 04:24:59 PM 42.6744 -105.0711 78° East 497 572 37,000  Level Denver Center
Thu 04:26:01 PM 42.7006 -104.8972 78° East 491 565 37,000  Level Denver Center
Thu 04:27:03 PM 42.7314 -104.6925 78° East 490 564 37,000  Level Denver Center
Thu 04:28:06 PM 42.7572 -104.5142 79° East 490 564 37,000  Level Denver Center
Thu 04:29:08 PM 42.7825 -104.3369 79° East 492 566 37,000  Level Denver Center
Thu 04:30:10 PM 42.8125 -104.1314 79° East 494 568 37,000  Level Denver Center
Thu 04:31:12 PM 42.8589 -103.9608 70° East 499 574 37,000  Level Denver Center
Thu 04:32:14 PM 42.9142 -103.7631 69° East 499 574 37,000  Level Denver Center
Thu 04:33:16 PM 42.9592 -103.5928 70° East 499 574 37,000  Level Denver Center
Thu 04:34:18 PM 43.0108 -103.3953 70° East 496 571 37,000  Level Denver Center
Thu 04:35:20 PM 43.0542 -103.2247 71° East 497 572 37,000  Level Denver Center
Thu 04:36:22 PM 43.1056 -103.0253 71° East 498 573 37,000  Level Denver Center
Thu 04:37:24 PM 43.1522 -102.8567 69° East 497 572 37,000  Level Denver Center
Thu 04:38:26 PM 43.1958 -102.6842 71° East 499 574 37,000  Level Denver Center
Thu 04:39:28 PM 43.2475 -102.4856 70° East 496 571 37,000  Level Denver Center
Thu 04:40:30 PM 43.2917 -102.3153 70° East 496 571 37,000  Level Denver Center
Thu 04:41:32 PM 43.3394 -102.1244 71° East 496 571 37,000  Level Denver Center
Thu 04:42:34 PM 43.3869 -101.9508 69° East 490 564 37,000  Level Denver Center
Thu 04:43:36 PM 43.4322 -101.7708 71° East 498 573 37,000  Level Denver Center
Thu 04:44:38 PM 43.4817 -101.5533 73° East 496 571 37,000  Level Denver Center
Thu 04:45:40 PM 43.5272 -101.3764 70° East 495 570 37,000  Level Denver Center
Thu 04:46:43 PM 43.5722 -101.1994 71° East 493 567 37,000  Level Denver Center
Thu 04:47:15 PM 43.5983 -101.0944 71° East 493 567 37,000  Level Minneapolis Center
Thu 04:48:17 PM 43.6417 -100.9158 71° East 492 566 37,000  Level Minneapolis Center
Thu 04:49:19 PM 43.6847 -100.7386 71° East 490 564 37,000  Level Minneapolis Center
Thu 04:50:21 PM 43.7267 -100.5617 72° East 488 562 37,000  Level Minneapolis Center
Thu 04:51:23 PM 43.7683 -100.3814 72° East 491 565 37,000  Level Minneapolis Center
Thu 04:52:25 PM 43.8100 -100.2031 72° East 491 565 37,000  Level Minneapolis Center
Thu 04:53:27 PM 43.8525 -99.9864 75° East 491 565 37,000  Level Minneapolis Center
Thu 04:54:29 PM 43.8503 -99.8033 91° East 482 555 37,000  Level Minneapolis Center
Thu 04:55:31 PM 43.8394 -99.6175 95° East 485 558 37,000  Level Minneapolis Center
Thu 04:56:33 PM 43.8297 -99.4350 94° East 480 552 37,000  Level Minneapolis Center
Thu 04:57:36 PM 43.8197 -99.2533 94° East 477 549 37,000  Level Minneapolis Center
Thu 04:58:38 PM 43.8067 -99.0339 95° East 477 549 37,000  Level Minneapolis Center
Thu 04:59:40 PM 43.7956 -98.8536 95° East 474 545 37,000  Level Minneapolis Center
Thu 05:00:42 PM 43.7850 -98.6700 94° East 479 551 37,000  Level Minneapolis Center
Thu 05:01:44 PM 43.7731 -98.4994 95° East 475 547 37,000  Level Minneapolis Center
Thu 05:02:46 PM 43.7597 -98.2811 95° East 477 549 37,000  Level Minneapolis Center
Thu 05:03:48 PM 43.7469 -98.0994 95° East 476 548 37,000  Level Minneapolis Center
Thu 05:04:50 PM 43.7344 -97.9186 95° East 474 545 37,000  Level Minneapolis Center
Thu 05:05:52 PM 43.7222 -97.7369 95° East 477 549 37,000  Level Minneapolis Center
Thu 05:06:54 PM 43.7086 -97.5556 96° East 478 550 37,000  Level Minneapolis Center
Thu 05:07:56 PM 43.6953 -97.3750 96° East 475 547 37,000  Level Minneapolis Center
Thu 05:08:59 PM 43.6786 -97.1581 96° East 476 548 37,000  Level Minneapolis Center
Thu 05:10:01 PM 43.6656 -96.9794 96° East 472 543 37,000  Level Minneapolis Center
Thu 05:11:03 PM 43.6503 -96.8000 97° East 473 544 37,000  Level Minneapolis Center
Thu 05:12:05 PM 43.6594 -96.6217 86° East 469 540 37,000  Level Minneapolis Center
Thu 05:13:07 PM 43.6706 -96.4408 85° East 474 545 37,000  Level Minneapolis Center
Thu 05:14:09 PM 43.6844 -96.2278 85° East 470 541 37,000  Level Minneapolis Center
Thu 05:15:11 PM 43.6947 -96.0483 85° East 472 543 37,000  Level Minneapolis Center
Thu 05:16:13 PM 43.7056 -95.8692 85° East 472 543 37,000  Level Minneapolis Center
Thu 05:17:15 PM 43.7158 -95.6889 85° East 476 548 37,000  Level Minneapolis Center
Thu 05:18:17 PM 43.7258 -95.5092 86° East 474 545 37,000  Level Minneapolis Center
Thu 05:19:19 PM 43.7358 -95.3300 86° East 473 544 37,000  Level Minneapolis Center
Thu 05:20:21 PM 43.7464 -95.1161 86° East 468 539 37,000  Level Minneapolis Center
Thu 05:21:23 PM 43.7561 -94.9364 86° East 470 541 37,000  Level Minneapolis Center
Thu 05:22:26 PM 43.7647 -94.7556 86° East 472 543 37,000  Level Minneapolis Center
Thu 05:23:28 PM 43.7736 -94.5750 86° East 473 544 37,000  Level Minneapolis Center
Thu 05:24:30 PM 43.7819 -94.3586 87° East 471 542 37,000  Level Minneapolis Center
Thu 05:25:32 PM 43.7892 -94.1817 87° East 469 540 37,000  Level Minneapolis Center
Thu 05:26:34 PM 43.7975 -94.0003 86° East 474 545 37,000 -532 Level Minneapolis Center
Thu 05:27:36 PM 43.8044 -93.8244 87° East 464 534 35,900 -1,403 Descending Minneapolis Center
Thu 05:28:38 PM 43.8108 -93.6547 87° East 451 519 34,100 -1,984 Descending Minneapolis Center
Thu 05:29:40 PM 43.8186 -93.4461 87° East 455 524 31,800 -1,935 Descending Minneapolis Center
Thu 05:30:42 PM 43.8244 -93.3017 87° East 467 537 30,100 -2,081 Descending Minneapolis Center
Thu 05:31:44 PM 43.8317 -93.0844 87° East 473 544 27,500 -2,323 Descending Minneapolis Center
Thu 05:32:46 PM 43.8381 -92.9064 87° East 469 540 25,300 -2,112 Descending Minneapolis Center
Thu 05:33:49 PM 43.8442 -92.7272 87° East 469 540 23,100 -2,304 Descending Minneapolis Center
Thu 05:34:51 PM 43.8506 -92.5192 87° East 457 526 20,500 -2,274 Descending Minneapolis Center
Thu 05:35:53 PM 43.8547 -92.3619 88° East 423 487 18,400 -1,935 Descending Minneapolis Center
Thu 05:36:55 PM 43.8589 -92.2133 88° East 397 457 16,500 -1,887 Descending Minneapolis Center
Thu 05:37:57 PM 43.8619 -92.0667 88° East 387 445 14,500 -1,935 Descending Minneapolis Center
Thu 05:38:59 PM 43.8661 -91.9231 88° East 379 436 12,500 -2,129 Descending Minneapolis Center
Thu 05:40:01 PM 43.8719 -91.7597 87° East 364 419 10,100 -2,129 Descending Minneapolis Center
Thu 05:41:03 PM 43.8742 -91.6467 88° East 307 353 8,100 -1,984 Descending Minneapolis Center
Thu 05:42:05 PM 43.8761 -91.5303 89° East 290 334 6,000 -1,984 Descending Minneapolis Center
Thu 05:43:07 PM 43.8994 -91.4353 71° East 257 296 4,000 -1,500 Descending Minneapolis Center
Thu 05:44:09 PM 43.9250 -91.3561 66° East 207 238 2,900 -774 Descending Minneapolis Center
Thu 05:45:11 PM 43.9372 -91.2953 74° East 199 229 2,400 -484 Descending Minneapolis Center

Login

Don't have an account? Register now (free) for customized features, flight alerts, and more!